createdAt,value
2023-04-13T00:00:21.561Z,64.90
2023-04-13T00:02:54.075Z,64.90
2023-04-13T00:05:22.500Z,65.10
2023-04-13T00:07:50.477Z,65.10
2023-04-13T00:10:20.658Z,65.30
2023-04-13T00:12:49.939Z,65.30
2023-04-13T00:15:20.222Z,65.20
2023-04-13T00:17:48.457Z,65.30
2023-04-13T00:20:17.628Z,65.30
2023-04-13T00:22:46.035Z,65.40
2023-04-13T00:25:14.777Z,65.60
2023-04-13T00:27:43.433Z,65.50
2023-04-13T00:30:14.012Z,65.20
2023-04-13T00:32:43.337Z,64.90
2023-04-13T00:35:11.590Z,64.70
2023-04-13T00:37:39.739Z,64.60
2023-04-13T00:40:09.562Z,64.90
2023-04-13T00:42:37.594Z,64.70
2023-04-13T00:45:06.450Z,64.80
2023-04-13T00:47:35.925Z,65.00
2023-04-13T00:50:04.883Z,65.00
2023-04-13T00:52:34.646Z,65.20
2023-04-13T00:55:03.978Z,65.20
2023-04-13T00:57:32.711Z,65.10
2023-04-13T01:00:00.740Z,65.20
2023-04-13T01:02:28.896Z,65.30
2023-04-13T01:04:58.708Z,65.40
2023-04-13T01:07:28.638Z,65.60
2023-04-13T01:10:00.235Z,65.40
2023-04-13T01:12:31.674Z,65.40
2023-04-13T01:15:02.262Z,65.40
2023-04-13T01:17:32.360Z,65.40
2023-04-13T01:20:11.805Z,65.50
2023-04-13T01:22:41.286Z,65.60
2023-04-13T01:25:22.745Z,65.40
2023-04-13T01:27:53.879Z,65.00
2023-04-13T01:30:23.465Z,64.60
2023-04-13T01:32:55.649Z,64.60
2023-04-13T01:35:25.458Z,64.90
2023-04-13T01:37:54.590Z,64.80
2023-04-13T01:40:26.950Z,64.60
2023-04-13T01:42:58.131Z,64.80
2023-04-13T01:45:31.259Z,65.00
2023-04-13T01:48:06.356Z,65.10
2023-04-13T01:50:59.094Z,65.30
2023-04-13T01:53:53.512Z,65.10
2023-04-13T01:56:23.055Z,65.30
2023-04-13T01:58:59.896Z,65.30
2023-04-13T02:01:29.619Z,65.40
2023-04-13T02:03:59.766Z,65.50
2023-04-13T02:06:31.847Z,65.30
2023-04-13T02:09:01.642Z,65.30
2023-04-13T02:11:29.576Z,65.30
2023-04-13T02:13:59.073Z,65.40
2023-04-13T02:16:28.254Z,65.50
2023-04-13T02:18:58.262Z,65.60
2023-04-13T02:21:26.800Z,65.30
2023-04-13T02:23:54.771Z,64.90
2023-04-13T02:26:26.053Z,64.50
2023-04-13T02:28:53.995Z,64.40
2023-04-13T02:31:23.476Z,64.60
2023-04-13T02:33:51.659Z,64.60
2023-04-13T02:36:20.147Z,64.50
2023-04-13T02:38:54.475Z,64.70
2023-04-13T02:41:29.615Z,64.80
2023-04-13T02:43:58.582Z,64.90
2023-04-13T02:46:32.963Z,65.10
2023-04-13T02:49:15.294Z,65.00
2023-04-13T02:52:01.682Z,65.00
2023-04-13T02:54:46.619Z,65.10
2023-04-13T02:57:14.572Z,65.20
2023-04-13T02:59:44.080Z,65.30
2023-04-13T03:02:14.639Z,65.30
2023-04-13T03:04:43.725Z,65.20
2023-04-13T03:07:14.482Z,65.30
2023-04-13T03:09:47.304Z,65.30
2023-04-13T03:12:17.015Z,65.40
2023-04-13T03:14:46.579Z,65.50
2023-04-13T03:17:18.518Z,65.40
2023-04-13T03:19:49.483Z,65.10
2023-04-13T03:22:20.595Z,64.60
2023-04-13T03:24:48.557Z,64.30
2023-04-13T03:27:28.229Z,64.50
2023-04-13T03:29:56.584Z,64.70
2023-04-13T03:32:26.029Z,64.50
2023-04-13T03:34:59.751Z,64.50
2023-04-13T03:37:30.320Z,64.60
2023-04-13T03:40:05.192Z,64.80
2023-04-13T03:42:44.024Z,65.00
2023-04-13T03:45:13.038Z,65.00
2023-04-13T03:47:44.116Z,64.80
2023-04-13T03:50:12.187Z,64.90
2023-04-13T03:52:40.612Z,65.00
2023-04-13T03:55:10.329Z,65.00
2023-04-13T03:57:40.477Z,65.20
2023-04-13T04:00:14.150Z,65.00
2023-04-13T04:02:48.183Z,65.00
2023-04-13T04:05:24.536Z,65.00
2023-04-13T04:08:00.340Z,65.10
2023-04-13T04:10:29.796Z,65.30
2023-04-13T04:12:59.273Z,65.30
2023-04-13T04:15:28.699Z,65.00
2023-04-13T04:18:03.670Z,64.60
2023-04-13T04:20:33.067Z,64.30
2023-04-13T04:23:04.979Z,64.20
2023-04-13T04:25:41.894Z,64.40
2023-04-13T04:28:09.784Z,64.30
2023-04-13T04:30:37.736Z,64.00
2023-04-13T04:33:08.382Z,64.20
2023-04-13T04:35:49.981Z,64.30
2023-04-13T04:38:19.416Z,64.40
2023-04-13T04:40:47.740Z,64.70
2023-04-13T04:43:16.451Z,64.10
2023-04-13T04:45:52.216Z,64.50
2023-04-13T04:48:24.926Z,64.60
2023-04-13T04:50:55.881Z,64.80
2023-04-13T04:53:28.344Z,64.70
2023-04-13T04:55:58.249Z,64.60
2023-04-13T04:58:38.968Z,64.50
2023-04-13T05:01:08.185Z,64.30
2023-04-13T05:03:37.926Z,64.00
2023-04-13T05:06:20.528Z,64.80
2023-04-13T05:08:48.470Z,64.30
2023-04-13T05:11:16.986Z,64.40
2023-04-13T05:13:44.980Z,64.30
2023-04-13T05:16:17.891Z,64.40
2023-04-13T05:18:47.487Z,64.50
2023-04-13T05:21:33.908Z,64.70
2023-04-13T05:24:03.046Z,64.80
2023-04-13T05:26:31.562Z,64.70
2023-04-13T05:29:04.591Z,64.80
2023-04-13T05:31:36.614Z,64.80
2023-04-13T05:34:06.353Z,64.90
2023-04-13T05:36:35.115Z,65.00
2023-04-13T05:39:08.021Z,65.00
2023-04-13T05:41:36.015Z,64.80
2023-04-13T05:44:04.094Z,65.60
2023-04-13T05:46:34.273Z,65.00
2023-04-13T05:49:07.271Z,65.10
2023-04-13T05:51:35.457Z,65.30
2023-04-13T05:54:03.648Z,65.20
2023-04-13T05:56:34.264Z,65.60
2023-04-13T05:59:03.249Z,64.40
2023-04-13T06:01:31.555Z,64.30
2023-04-13T06:04:00.777Z,64.30
2023-04-13T06:06:30.365Z,64.60
2023-04-13T06:08:58.628Z,64.40
2023-04-13T06:11:27.564Z,64.40
2023-04-13T06:13:57.532Z,64.50
2023-04-13T06:16:26.791Z,64.70
2023-04-13T06:18:55.978Z,64.90
2023-04-13T06:21:27.682Z,65.00
2023-04-13T06:23:57.001Z,64.90
2023-04-13T06:26:33.584Z,65.00
2023-04-13T06:29:02.904Z,65.00
2023-04-13T06:31:37.328Z,65.10
2023-04-13T06:34:11.654Z,65.40
2023-04-13T06:36:40.501Z,65.20
2023-04-13T06:39:11.573Z,64.80
2023-04-13T06:41:41.258Z,64.60
2023-04-13T06:44:21.657Z,64.60
2023-04-13T06:46:54.401Z,64.80
2023-04-13T06:49:24.203Z,64.90
2023-04-13T06:51:52.612Z,64.80
2023-04-13T06:54:21.917Z,64.90
2023-04-13T06:56:57.078Z,65.80
2023-04-13T06:59:25.107Z,65.10
2023-04-13T07:01:53.889Z,65.30
2023-04-13T07:04:22.070Z,65.20
2023-04-13T07:06:50.203Z,65.30
2023-04-13T07:09:18.379Z,65.30
2023-04-13T07:11:47.901Z,65.30
2023-04-13T07:14:17.231Z,65.40
2023-04-13T07:16:46.133Z,65.50
2023-04-13T07:19:15.604Z,65.20
2023-04-13T07:21:43.548Z,64.80
2023-04-13T07:24:11.724Z,64.60
2023-04-13T07:26:43.087Z,64.70
2023-04-13T07:29:16.424Z,64.90
2023-04-13T07:31:50.692Z,64.80
2023-04-13T07:34:18.781Z,64.80
2023-04-13T07:36:48.915Z,64.90
2023-04-13T07:39:20.250Z,65.10
2023-04-13T07:41:50.119Z,65.10
2023-04-13T07:44:26.551Z,65.40
2023-04-13T07:46:55.827Z,65.20
2023-04-13T07:49:25.728Z,65.20
2023-04-13T07:51:55.478Z,65.30
2023-04-13T07:54:27.158Z,65.40
2023-04-13T07:56:58.359Z,65.30
2023-04-13T07:59:30.930Z,65.50
2023-04-13T08:02:00.141Z,65.30
2023-04-13T08:04:31.796Z,65.00
2023-04-13T08:07:04.181Z,64.80
2023-04-13T08:09:36.138Z,64.80
2023-04-13T08:12:04.605Z,65.00
2023-04-13T08:14:34.694Z,65.10
2023-04-13T08:17:04.963Z,65.00
2023-04-13T08:19:34.091Z,65.10
2023-04-13T08:22:02.711Z,65.20
2023-04-13T08:24:30.907Z,65.30
2023-04-13T08:26:59.256Z,65.50
2023-04-13T08:29:27.747Z,65.40
2023-04-13T08:31:58.076Z,65.30
2023-04-13T08:34:27.988Z,65.40
2023-04-13T08:36:56.006Z,65.40
2023-04-13T08:39:27.256Z,65.40
2023-04-13T08:41:56.790Z,65.70
2023-04-13T08:44:28.119Z,65.40
2023-04-13T08:46:57.394Z,65.40
2023-04-13T08:49:29.618Z,65.40
2023-04-13T08:52:11.449Z,65.40
2023-04-13T08:54:41.685Z,65.60
2023-04-13T08:57:17.464Z,65.60
2023-04-13T08:59:45.782Z,65.40
2023-04-13T09:02:15.715Z,65.00
2023-04-13T09:04:53.798Z,64.70
2023-04-13T09:07:26.544Z,64.60
2023-04-13T09:09:59.017Z,64.80
2023-04-13T09:12:28.979Z,64.90
2023-04-13T09:14:56.942Z,64.80
2023-04-13T09:17:29.215Z,64.90
2023-04-13T09:19:58.343Z,65.00
2023-04-13T09:22:26.945Z,65.20
2023-04-13T09:24:54.862Z,65.50
2023-04-13T09:27:24.047Z,65.40
2023-04-13T09:29:53.159Z,65.30
2023-04-13T09:32:22.503Z,65.40
2023-04-13T09:35:04.454Z,65.40
2023-04-13T09:37:35.532Z,65.60
2023-04-13T09:40:11.331Z,65.80
2023-04-13T09:42:40.102Z,65.60
2023-04-13T09:45:08.694Z,65.30
2023-04-13T09:47:37.937Z,64.90
2023-04-13T09:50:17.634Z,64.80
2023-04-13T09:52:46.672Z,65.10
2023-04-13T09:55:18.595Z,65.20
2023-04-13T09:57:48.442Z,65.00
2023-04-13T10:00:20.638Z,65.00
2023-04-13T10:02:49.845Z,65.20
2023-04-13T10:05:19.886Z,65.40
2023-04-13T10:07:48.484Z,65.50
2023-04-13T10:10:19.485Z,65.30
2023-04-13T10:12:54.601Z,65.30
2023-04-13T10:15:31.665Z,65.40
2023-04-13T10:18:06.219Z,65.50
2023-04-13T10:20:36.458Z,65.60
2023-04-13T10:23:05.324Z,65.70
2023-04-13T10:25:35.112Z,65.40
2023-04-13T10:28:04.167Z,65.50
2023-04-13T10:30:32.127Z,65.60
2023-04-13T10:33:05.552Z,65.70
2023-04-13T10:35:38.943Z,65.70
2023-04-13T10:38:08.981Z,65.90
2023-04-13T10:40:46.085Z,65.60
2023-04-13T10:43:14.051Z,65.30
2023-04-13T10:45:41.941Z,65.00
2023-04-13T10:48:22.185Z,64.90
2023-04-13T10:51:01.191Z,65.00
2023-04-13T10:53:30.847Z,65.20
2023-04-13T10:55:59.426Z,65.10
2023-04-13T10:58:28.535Z,65.20
2023-04-13T11:00:59.379Z,65.30
2023-04-13T11:03:28.280Z,65.30
2023-04-13T11:06:01.122Z,65.60
2023-04-13T11:08:29.289Z,65.40
2023-04-13T11:10:58.164Z,65.40
2023-04-13T11:13:26.649Z,65.50
2023-04-13T11:16:02.504Z,65.60
2023-04-13T11:18:30.463Z,65.70
2023-04-13T11:20:59.684Z,65.80
2023-04-13T11:23:27.551Z,65.60
2023-04-13T11:25:57.968Z,65.20
2023-04-13T11:28:27.121Z,64.90
2023-04-13T11:30:56.082Z,64.80
2023-04-13T11:33:27.551Z,65.00
2023-04-13T11:35:56.074Z,65.10
2023-04-13T11:38:25.292Z,65.00
2023-04-13T11:40:58.807Z,65.10
2023-04-13T11:43:29.646Z,65.30
2023-04-13T11:45:57.597Z,65.40
2023-04-13T11:48:26.182Z,65.50
2023-04-13T11:50:54.097Z,65.40
2023-04-13T11:53:21.996Z,65.60
2023-04-13T11:55:53.658Z,65.50
2023-04-13T11:58:22.133Z,65.60
2023-04-13T12:00:50.111Z,65.70
2023-04-13T12:05:49.944Z,65.70
2023-04-13T12:08:25.574Z,65.70
2023-04-13T12:11:25.149Z,65.70
2023-04-13T12:14:05.937Z,65.70
2023-04-13T12:17:03.145Z,65.80
2023-04-13T12:19:27.617Z,65.90
2023-04-13T12:21:57.207Z,65.60
2023-04-13T12:24:33.065Z,65.30
2023-04-13T12:29:38.371Z,64.80
2023-04-13T12:32:14.277Z,65.00
2023-04-13T12:34:42.983Z,65.10
2023-04-13T12:37:11.722Z,65.00
2023-04-13T12:39:39.724Z,65.10
2023-04-13T12:42:08.972Z,65.20
2023-04-13T12:44:37.030Z,65.30
2023-04-13T12:47:06.004Z,65.50
2023-04-13T12:49:34.024Z,65.40
2023-04-13T12:52:01.898Z,65.40
2023-04-13T12:54:30.766Z,65.40
2023-04-13T12:56:59.711Z,65.60
2023-04-13T12:59:31.158Z,65.70
2023-04-13T13:01:59.210Z,65.90
2023-04-13T13:04:30.041Z,65.70
2023-04-13T13:06:58.082Z,65.80
2023-04-13T13:09:26.242Z,65.80
2023-04-13T13:11:54.141Z,65.80
2023-04-13T13:14:22.268Z,65.90
2023-04-13T13:16:51.686Z,66.10
2023-04-13T13:19:19.710Z,65.90
2023-04-13T13:21:47.639Z,65.60
2023-04-13T13:24:15.524Z,65.20
2023-04-13T13:27:05.826Z,65.00
2023-04-13T13:29:33.415Z,65.10
2023-04-13T13:32:02.780Z,65.30
2023-04-13T13:34:30.757Z,65.10
2023-04-13T13:36:58.898Z,65.40
2023-04-13T13:39:27.187Z,65.50
2023-04-13T13:41:55.079Z,65.50
2023-04-13T13:44:23.070Z,65.80
2023-04-13T13:46:51.109Z,65.80
2023-04-13T13:49:24.708Z,65.80
2023-04-13T13:52:16.767Z,65.80
2023-04-13T13:54:52.369Z,65.90
2023-04-13T13:57:20.264Z,65.90
2023-04-13T13:59:49.404Z,66.10
2023-04-13T14:02:20.340Z,65.90
2023-04-13T14:04:49.690Z,66.00
2023-04-13T14:07:17.630Z,65.90
2023-04-13T14:09:46.205Z,65.90
2023-04-13T14:12:16.816Z,65.90
2023-04-13T14:14:44.750Z,65.90
2023-04-13T14:17:12.635Z,65.60
2023-04-13T14:19:40.737Z,65.50
2023-04-13T14:22:09.977Z,65.20
2023-04-13T14:24:38.048Z,65.00
2023-04-13T14:27:06.067Z,65.10
2023-04-13T14:29:33.941Z,65.30
2023-04-13T14:32:02.104Z,65.10
2023-04-13T14:34:30.157Z,65.30
2023-04-13T14:36:58.160Z,65.40
2023-04-13T14:39:27.497Z,65.40
2023-04-13T14:41:56.707Z,65.50
2023-04-13T14:44:24.861Z,65.70
2023-04-13T14:46:53.431Z,65.60
2023-04-13T14:49:22.546Z,65.70
2023-04-13T14:51:50.782Z,65.80
2023-04-13T14:54:18.731Z,65.70
2023-04-13T14:56:48.558Z,65.90
2023-04-13T14:59:16.484Z,65.80
2023-04-13T15:01:46.565Z,66.50
2023-04-13T15:04:14.710Z,65.80
2023-04-13T15:06:42.685Z,65.90
2023-04-13T15:09:13.223Z,66.00
2023-04-13T15:11:41.104Z,66.10
2023-04-13T15:14:10.322Z,66.00
2023-04-13T15:16:38.254Z,65.70
2023-04-13T15:19:06.283Z,65.30
2023-04-13T15:21:35.656Z,65.10
2023-04-13T15:24:03.586Z,65.20
2023-04-13T15:26:31.568Z,65.30
2023-04-13T15:28:59.699Z,65.40
2023-04-13T15:31:29.219Z,65.30
2023-04-13T15:33:57.208Z,65.60
2023-04-13T15:36:25.130Z,65.50
2023-04-13T15:38:54.234Z,65.70
2023-04-13T15:41:25.068Z,65.80
2023-04-13T15:43:55.625Z,65.70
2023-04-13T15:46:23.614Z,65.80
2023-04-13T15:48:52.865Z,65.70
2023-04-13T15:51:20.863Z,65.80
2023-04-13T15:53:48.806Z,65.90
2023-04-13T15:56:17.318Z,66.10
2023-04-13T15:58:45.273Z,65.90
2023-04-13T16:01:13.531Z,65.80
2023-04-13T16:03:44.049Z,65.90
2023-04-13T16:06:13.494Z,65.90
2023-04-13T16:08:41.530Z,66.10
2023-04-13T16:11:09.448Z,66.20
2023-04-13T16:13:47.928Z,66.00
2023-04-13T16:16:18.108Z,65.70
2023-04-13T16:18:46.115Z,65.30
2023-04-13T16:21:19.932Z,65.30
2023-04-13T16:23:47.887Z,65.40
2023-04-13T16:26:15.812Z,65.60
2023-04-13T16:28:43.804Z,65.60
2023-04-13T16:31:12.160Z,65.60
2023-04-13T16:33:40.162Z,65.70
2023-04-13T16:36:08.934Z,65.80
2023-04-13T16:38:39.937Z,66.00
2023-04-13T16:41:07.847Z,65.90
2023-04-13T16:43:35.720Z,65.80
2023-04-13T16:46:03.585Z,65.90
2023-04-13T16:48:31.484Z,65.90
2023-04-13T16:51:02.687Z,66.00
2023-04-13T16:53:31.361Z,66.20
2023-04-13T16:56:00.653Z,66.10
2023-04-13T16:58:28.602Z,65.90
2023-04-13T17:00:57.431Z,66.00
2023-04-13T17:03:25.522Z,66.00
2023-04-13T17:05:53.575Z,66.20
2023-04-13T17:08:21.469Z,66.40
2023-04-13T17:10:50.166Z,66.10
2023-04-13T17:13:19.517Z,65.80
2023-04-13T17:15:47.452Z,65.50
2023-04-13T17:18:16.414Z,65.20
2023-04-13T17:20:44.332Z,65.00
2023-04-13T17:23:12.488Z,65.30
2023-04-13T17:25:41.518Z,65.30
2023-04-13T17:28:09.427Z,65.20
2023-04-13T17:30:38.705Z,65.30
2023-04-13T17:33:06.971Z,65.30
2023-04-13T17:35:34.967Z,65.50
2023-04-13T17:38:02.916Z,65.80
2023-04-13T17:40:30.858Z,65.70
2023-04-13T17:42:59.654Z,65.70
2023-04-13T17:45:27.562Z,65.70
2023-04-13T17:47:56.822Z,65.80
2023-04-13T17:50:24.742Z,66.00
2023-04-13T17:52:52.701Z,66.10
2023-04-13T17:55:23.090Z,66.10
2023-04-13T17:57:51.040Z,66.00
2023-04-13T18:00:19.596Z,66.10
2023-04-13T18:02:50.126Z,66.70
2023-04-13T18:05:19.555Z,66.00
2023-04-13T18:07:47.537Z,66.30
2023-04-13T18:10:15.474Z,66.10
2023-04-13T18:12:43.398Z,65.80
2023-04-13T18:15:13.479Z,65.40
2023-04-13T18:17:42.058Z,65.10
2023-04-13T18:20:11.054Z,65.10
2023-04-13T18:22:40.294Z,65.40
2023-04-13T18:25:09.661Z,65.40
2023-04-13T18:27:37.653Z,65.30
2023-04-13T18:30:06.508Z,65.40
2023-04-13T18:32:34.480Z,65.50
2023-04-13T18:35:03.991Z,65.60
2023-04-13T18:37:33.263Z,65.80
2023-04-13T18:40:05.358Z,65.70
2023-04-13T18:42:33.666Z,65.80
2023-04-13T18:45:01.547Z,65.90
2023-04-13T18:47:32.707Z,65.90
2023-04-13T18:50:00.780Z,66.00
2023-04-13T18:52:28.708Z,66.20
2023-04-13T18:54:57.087Z,65.90
2023-04-13T18:57:26.602Z,65.60
2023-04-13T18:59:54.643Z,65.50
2023-04-13T19:02:22.685Z,65.60
2023-04-13T19:04:50.691Z,65.60
2023-04-13T19:07:18.648Z,65.70
2023-04-13T19:09:47.076Z,65.70
2023-04-13T19:12:15.020Z,65.80
2023-04-13T19:14:44.415Z,65.90
2023-04-13T19:17:13.413Z,66.00
2023-04-13T19:19:41.323Z,66.10
2023-04-13T19:22:09.264Z,66.10
2023-04-13T19:24:37.448Z,66.00
2023-04-13T19:27:05.361Z,65.90
2023-04-13T19:29:34.160Z,65.90
2023-04-13T19:32:03.602Z,66.10
2023-04-13T19:34:31.594Z,66.20
2023-04-13T19:36:59.498Z,66.00
2023-04-13T19:39:27.442Z,66.00
2023-04-13T19:41:55.426Z,65.90
2023-04-13T19:44:23.389Z,66.00
2023-04-13T19:46:51.440Z,66.00
2023-04-13T19:49:20.702Z,66.20
2023-04-13T19:51:48.607Z,66.10
2023-04-13T19:54:18.481Z,65.80
2023-04-13T19:56:46.402Z,65.40
2023-04-13T19:59:14.358Z,65.10
2023-04-13T20:01:45.819Z,65.10
2023-04-13T20:04:13.906Z,65.40
2023-04-13T20:06:43.284Z,65.40
2023-04-13T20:09:11.937Z,65.30
2023-04-13T20:11:41.157Z,65.40
2023-04-13T20:14:12.507Z,65.60
2023-04-13T20:16:40.634Z,65.60
2023-04-13T20:19:09.368Z,65.80
2023-04-13T20:21:37.970Z,65.80
2023-04-13T20:24:07.623Z,65.80
2023-04-13T20:26:35.589Z,65.90
2023-04-13T20:29:04.193Z,66.00
2023-04-13T20:31:33.025Z,66.10
2023-04-13T20:34:03.034Z,66.00
2023-04-13T20:36:31.042Z,65.90
2023-04-13T20:39:00.101Z,66.00
2023-04-13T20:41:31.995Z,66.00
2023-04-13T20:44:00.646Z,66.10
2023-04-13T20:46:34.229Z,66.40
2023-04-13T20:49:04.592Z,66.10
2023-04-13T20:51:32.942Z,65.70
2023-04-13T20:54:02.577Z,65.30
2023-04-13T20:56:32.924Z,65.20
2023-04-13T20:59:01.471Z,65.20
2023-04-13T21:01:30.155Z,65.30
2023-04-13T21:03:58.259Z,65.30
2023-04-13T21:06:29.781Z,65.30
2023-04-13T21:08:58.815Z,65.30
2023-04-13T21:11:26.899Z,65.50
2023-04-13T21:13:58.208Z,65.50
2023-04-13T21:16:26.832Z,65.80
2023-04-13T21:18:55.010Z,65.60
2023-04-13T21:21:24.723Z,65.60
2023-04-13T21:23:53.522Z,65.70
2023-04-13T21:26:21.599Z,65.80
2023-04-13T21:28:49.574Z,65.80
2023-04-13T21:31:18.877Z,65.90
2023-04-13T21:33:46.782Z,65.80
2023-04-13T21:38:46.263Z,65.90
2023-04-13T21:41:17.080Z,65.90
2023-04-13T21:43:44.983Z,66.10
2023-04-13T21:46:13.064Z,66.00
2023-04-13T21:48:42.505Z,65.90
2023-04-13T21:51:10.842Z,65.30
2023-04-13T21:53:38.915Z,65.00
2023-04-13T21:56:07.487Z,64.90
2023-04-13T21:58:38.756Z,65.10
2023-04-13T22:01:07.228Z,65.30
2023-04-13T22:03:37.409Z,65.20
2023-04-13T22:06:07.549Z,65.10
2023-04-13T22:08:35.549Z,65.20
2023-04-13T22:11:03.552Z,65.40
2023-04-13T22:13:31.481Z,65.50
2023-04-13T22:15:59.454Z,65.60
2023-04-13T22:18:27.653Z,65.50
2023-04-13T22:20:59.249Z,65.60
2023-04-13T22:23:29.067Z,65.70
2023-04-13T22:25:58.723Z,65.80
2023-04-13T22:28:26.773Z,65.80
2023-04-13T22:30:54.689Z,65.80
2023-04-13T22:33:22.575Z,65.80
2023-04-13T22:35:52.398Z,65.80
2023-04-13T22:38:20.879Z,65.90
2023-04-13T22:40:50.156Z,65.80
2023-04-13T22:43:19.710Z,66.10
2023-04-13T22:45:47.608Z,65.90
2023-04-13T22:48:15.498Z,65.70
2023-04-13T22:50:43.404Z,65.30
2023-04-13T22:53:11.532Z,65.10
2023-04-13T22:55:39.428Z,65.10
2023-04-13T22:58:08.852Z,65.20
2023-04-13T23:00:37.322Z,65.20
2023-04-13T23:03:08.501Z,65.20
2023-04-13T23:05:36.509Z,65.30
2023-04-13T23:08:04.760Z,65.40
2023-04-13T23:10:33.153Z,65.40
2023-04-13T23:13:01.066Z,65.70
2023-04-13T23:15:30.336Z,65.60
2023-04-13T23:17:58.258Z,65.60
2023-04-13T23:20:27.945Z,65.60
2023-04-13T23:22:55.839Z,65.80
2023-04-13T23:25:23.795Z,65.80
2023-04-13T23:27:51.748Z,66.00
2023-04-13T23:30:19.874Z,65.80
2023-04-13T23:32:49.196Z,65.70
2023-04-13T23:35:17.334Z,65.70
2023-04-13T23:37:46.052Z,65.80
2023-04-13T23:40:14.132Z,65.90
2023-04-13T23:42:42.080Z,66.10
2023-04-13T23:45:10.827Z,65.80
2023-04-13T23:47:38.907Z,65.50
2023-04-13T23:50:08.818Z,65.20
2023-04-13T23:52:36.737Z,65.10
2023-04-13T23:55:04.943Z,65.00
2023-04-13T23:57:34.557Z,65.30
